sensor_id;sensor_type;location;lat;lon;timestamp;pressure;altitude;pressure_sealevel;temperature;humidity
9423;BME280;4750;49.506;10.400;2022-11-18T00:00:35;96225.94;;;7.54;99.56
9423;BME280;4750;49.506;10.400;2022-11-18T00:03:19;96221.06;;;7.55;99.51
9423;BME280;4750;49.506;10.400;2022-11-18T00:06:04;96237.81;;;7.72;99.30
9423;BME280;4750;49.506;10.400;2022-11-18T00:08:48;96232.00;;;7.61;99.04
9423;BME280;4750;49.506;10.400;2022-11-18T00:11:33;96245.44;;;7.72;99.17
9423;BME280;4750;49.506;10.400;2022-11-18T00:14:36;96243.38;;;7.72;99.02
9423;BME280;4750;49.506;10.400;2022-11-18T00:17:20;96211.78;;;7.52;99.11
9423;BME280;4750;49.506;10.400;2022-11-18T00:20:04;96213.59;;;7.57;98.88
9423;BME280;4750;49.506;10.400;2022-11-18T00:22:48;96212.47;;;7.43;98.72
9423;BME280;4750;49.506;10.400;2022-11-18T00:25:33;96212.38;;;7.33;98.52
9423;BME280;4750;49.506;10.400;2022-11-18T00:28:17;96204.09;;;7.26;98.51
9423;BME280;4750;49.506;10.400;2022-11-18T00:31:02;96230.84;;;7.46;98.51
9423;BME280;4750;49.506;10.400;2022-11-18T00:33:47;96202.28;;;7.20;98.60
9423;BME280;4750;49.506;10.400;2022-11-18T00:36:31;96212.78;;;7.30;98.41
9423;BME280;4750;49.506;10.400;2022-11-18T00:39:17;96202.88;;;7.19;98.82
9423;BME280;4750;49.506;10.400;2022-11-18T00:42:01;96233.97;;;7.33;98.67
9423;BME280;4750;49.506;10.400;2022-11-18T00:45:05;96169.28;;;6.92;98.90
9423;BME280;4750;49.506;10.400;2022-11-18T00:47:49;96199.81;;;7.07;98.85
9423;BME280;4750;49.506;10.400;2022-11-18T00:50:33;96222.22;;;7.17;98.51
9423;BME280;4750;49.506;10.400;2022-11-18T00:53:18;96197.09;;;6.99;98.36
9423;BME280;4750;49.506;10.400;2022-11-18T00:56:04;96204.72;;;6.99;98.64
9423;BME280;4750;49.506;10.400;2022-11-18T00:58:47;96234.19;;;7.10;98.68
9423;BME280;4750;49.506;10.400;2022-11-18T01:01:31;96212.69;;;7.02;98.50
9423;BME280;4750;49.506;10.400;2022-11-18T01:04:15;96212.78;;;6.95;98.66
9423;BME280;4750;49.506;10.400;2022-11-18T01:07:00;96186.81;;;6.67;99.05
9423;BME280;4750;49.506;10.400;2022-11-18T01:09:44;96234.44;;;7.04;98.66
9423;BME280;4750;49.506;10.400;2022-11-18T01:12:28;96224.66;;;6.95;98.78
9423;BME280;4750;49.506;10.400;2022-11-18T01:15:37;96244.78;;;7.11;98.26
9423;BME280;4750;49.506;10.400;2022-11-18T01:18:25;96234.09;;;7.00;98.87
9423;BME280;4750;49.506;10.400;2022-11-18T01:21:09;96214.72;;;6.84;98.64
9423;BME280;4750;49.506;10.400;2022-11-18T01:23:53;96238.72;;;7.05;98.68
9423;BME280;4750;49.506;10.400;2022-11-18T01:26:37;96248.72;;;7.08;98.88
9423;BME280;4750;49.506;10.400;2022-11-18T01:29:21;96232.06;;;7.00;98.60
9423;BME280;4750;49.506;10.400;2022-11-18T01:32:05;96254.97;;;7.16;98.83
9423;BME280;4750;49.506;10.400;2022-11-18T01:34:49;96245.94;;;7.08;98.81
9423;BME280;4750;49.506;10.400;2022-11-18T01:37:33;96243.00;;;7.06;99.05
9423;BME280;4750;49.506;10.400;2022-11-18T01:40:17;96234.19;;;7.10;98.58
9423;BME280;4750;49.506;10.400;2022-11-18T01:43:01;96246.09;;;7.10;98.68
9423;BME280;4750;49.506;10.400;2022-11-18T01:45:48;96228.19;;;6.96;99.02
9423;BME280;4750;49.506;10.400;2022-11-18T01:48:33;96232.38;;;7.04;98.62
9423;BME280;4750;49.506;10.400;2022-11-18T01:51:21;96261.97;;;7.25;98.94
9423;BME280;4750;49.506;10.400;2022-11-18T01:54:20;96264.19;;;7.27;98.65
9423;BME280;4750;49.506;10.400;2022-11-18T01:57:11;96256.13;;;7.31;98.74
9423;BME280;4750;49.506;10.400;2022-11-18T02:00:00;96253.91;;;7.29;98.87
9423;BME280;4750;49.506;10.400;2022-11-18T02:02:48;96201.44;;;6.93;98.65
9423;BME280;4750;49.506;10.400;2022-11-18T02:05:32;96223.47;;;7.06;98.93
9423;BME280;4750;49.506;10.400;2022-11-18T02:08:18;96243.81;;;7.16;98.42
9423;BME280;4750;49.506;10.400;2022-11-18T02:11:03;96234.63;;;7.06;98.57
9423;BME280;4750;49.506;10.400;2022-11-18T02:13:47;96236.59;;;7.13;98.84
9423;BME280;4750;49.506;10.400;2022-11-18T02:16:45;96237.91;;;7.12;98.57
9423;BME280;4750;49.506;10.400;2022-11-18T02:28:35;96229.78;;;7.06;97.92
9423;BME280;4750;49.506;10.400;2022-11-18T02:34:23;96255.03;;;7.09;97.71
9423;BME280;4750;49.506;10.400;2022-11-18T02:43:15;96248.59;;;7.23;97.54
9423;BME280;4750;49.506;10.400;2022-11-18T02:46:06;96228.72;;;7.02;98.11
9423;BME280;4750;49.506;10.400;2022-11-18T02:48:52;96233.88;;;7.05;97.73
9423;BME280;4750;49.506;10.400;2022-11-18T02:51:38;96257.88;;;7.26;97.46
9423;BME280;4750;49.506;10.400;2022-11-18T02:54:25;96233.88;;;7.05;97.63
9423;BME280;4750;49.506;10.400;2022-11-18T02:57:12;96243.00;;;7.06;97.87
9423;BME280;4750;49.506;10.400;2022-11-18T02:59:56;96253.97;;;7.04;97.83
9423;BME280;4750;49.506;10.400;2022-11-18T03:02:47;96262.03;;;7.17;97.37
9423;BME280;4750;49.506;10.400;2022-11-18T03:05:42;96254.97;;;7.16;97.60
9423;BME280;4750;49.506;10.400;2022-11-18T03:08:35;96258.44;;;7.24;97.92
9423;BME280;4750;49.506;10.400;2022-11-18T03:11:23;96246.09;;;7.10;97.66
9423;BME280;4750;49.506;10.400;2022-11-18T03:17:10;96248.00;;;7.07;97.48
9423;BME280;4750;49.506;10.400;2022-11-18T03:20:19;96278.44;;;7.13;97.66
9423;BME280;4750;49.506;10.400;2022-11-18T03:23:13;96274.28;;;7.22;97.96
9423;BME280;4750;49.506;10.400;2022-11-18T03:26:11;96260.56;;;7.16;97.63
9423;BME280;4750;49.506;10.400;2022-11-18T03:29:04;96256.25;;;6.98;97.58
9423;BME280;4750;49.506;10.400;2022-11-18T03:31:55;96271.88;;;7.18;97.53
9423;BME280;4750;49.506;10.400;2022-11-18T03:34:48;96279.50;;;7.18;97.56
9423;BME280;4750;49.506;10.400;2022-11-18T03:37:35;96265.13;;;7.04;97.29
9423;BME280;4750;49.506;10.400;2022-11-18T03:40:25;96270.72;;;7.04;97.18
9423;BME280;4750;49.506;10.400;2022-11-18T03:43:14;96290.91;;;7.12;96.87
9423;BME280;4750;49.506;10.400;2022-11-18T03:46:04;96276.47;;;6.81;96.91
9423;BME280;4750;49.506;10.400;2022-11-18T03:48:52;96295.31;;;6.98;96.86
9423;BME280;4750;49.506;10.400;2022-11-18T03:51:47;96280.81;;;6.74;96.81
9423;BME280;4750;49.506;10.400;2022-11-18T03:54:36;96264.06;;;6.74;96.95
9423;BME280;4750;49.506;10.400;2022-11-18T03:57:33;96280.41;;;6.78;97.26
9423;BME280;4750;49.506;10.400;2022-11-18T04:00:21;96296.72;;;6.81;97.43
9423;BME280;4750;49.506;10.400;2022-11-18T04:03:07;96242.53;;;6.49;97.10
9423;BME280;4750;49.506;10.400;2022-11-18T04:05:57;96232.47;;;6.46;97.35
9423;BME280;4750;49.506;10.400;2022-11-18T04:08:45;96288.81;;;6.70;97.55
9423;BME280;4750;49.506;10.400;2022-11-18T04:11:38;96304.03;;;6.77;97.42
9423;BME280;4750;49.506;10.400;2022-11-18T04:14:43;96284.50;;;6.51;97.12
9423;BME280;4750;49.506;10.400;2022-11-18T04:17:28;96275.66;;;6.37;97.35
9423;BME280;4750;49.506;10.400;2022-11-18T04:20:16;96283.22;;;6.45;97.52
9423;BME280;4750;49.506;10.400;2022-11-18T04:23:00;96283.78;;;6.43;97.32
9423;BME280;4750;49.506;10.400;2022-11-18T04:25:44;96323.44;;;6.67;97.46
9423;BME280;4750;49.506;10.400;2022-11-18T04:28:28;96276.34;;;6.46;97.36
9423;BME280;4750;49.506;10.400;2022-11-18T04:31:12;96274.13;;;6.44;97.62
9423;BME280;4750;49.506;10.400;2022-11-18T04:33:56;96321.91;;;6.74;97.95
9423;BME280;4750;49.506;10.400;2022-11-18T04:36:40;96315.00;;;6.75;97.99
9423;BME280;4750;49.506;10.400;2022-11-18T04:39:24;96300.84;;;6.55;97.69
9423;BME280;4750;49.506;10.400;2022-11-18T04:42:08;96297.13;;;6.52;98.09
9423;BME280;4750;49.506;10.400;2022-11-18T04:44:52;96314.56;;;6.61;97.69
9423;BME280;4750;49.506;10.400;2022-11-18T04:47:37;96314.56;;;6.61;97.93
9423;BME280;4750;49.506;10.400;2022-11-18T04:50:21;96298.41;;;6.59;98.12
9423;BME280;4750;49.506;10.400;2022-11-18T04:53:05;96291.94;;;6.49;97.76
9423;BME280;4750;49.506;10.400;2022-11-18T04:55:49;96295.53;;;6.67;97.82
9423;BME280;4750;49.506;10.400;2022-11-18T04:58:33;96301.06;;;6.75;97.75
9423;BME280;4750;49.506;10.400;2022-11-18T05:01:17;96300.38;;;6.66;97.46
9423;BME280;4750;49.506;10.400;2022-11-18T05:04:02;96331.41;;;6.96;97.40
9423;BME280;4750;49.506;10.400;2022-11-18T05:06:47;96334.41;;;6.90;97.79
9423;BME280;4750;49.506;10.400;2022-11-18T05:09:31;96305.22;;;6.66;97.73
9423;BME280;4750;49.506;10.400;2022-11-18T05:12:15;96305.56;;;6.70;97.28
9423;BME280;4750;49.506;10.400;2022-11-18T05:15:20;96342.56;;;6.96;97.29
9423;BME280;4750;49.506;10.400;2022-11-18T05:18:09;96333.63;;;6.97;97.31
9423;BME280;4750;49.506;10.400;2022-11-18T05:20:53;96345.75;;;6.92;97.28
9423;BME280;4750;49.506;10.400;2022-11-18T05:23:37;96251.56;;;6.32;97.09
9423;BME280;4750;49.506;10.400;2022-11-18T05:26:21;96326.13;;;6.82;97.27
9423;BME280;4750;49.506;10.400;2022-11-18T05:29:05;96342.75;;;6.98;97.21
9423;BME280;4750;49.506;10.400;2022-11-18T05:31:49;96331.13;;;6.84;97.00
9423;BME280;4750;49.506;10.400;2022-11-18T05:34:33;96335.31;;;6.93;97.17
9423;BME280;4750;49.506;10.400;2022-11-18T05:37:17;96335.97;;;6.83;97.04
9423;BME280;4750;49.506;10.400;2022-11-18T05:40:01;96331.47;;;6.88;96.97
9423;BME280;4750;49.506;10.400;2022-11-18T05:42:45;96336.63;;;6.92;97.13
9423;BME280;4750;49.506;10.400;2022-11-18T05:45:50;96329.41;;;6.88;97.28
9423;BME280;4750;49.506;10.400;2022-11-18T05:48:34;96326.47;;;6.86;97.07
9423;BME280;4750;49.506;10.400;2022-11-18T05:51:18;96370.53;;;7.13;96.89
9423;BME280;4750;49.506;10.400;2022-11-18T05:54:04;96372.19;;;7.16;97.46
9423;BME280;4750;49.506;10.400;2022-11-18T05:56:49;96350.31;;;7.05;97.03
9423;BME280;4750;49.506;10.400;2022-11-18T05:59:33;96352.75;;;7.01;96.78
9423;BME280;4750;49.506;10.400;2022-11-18T06:02:20;96356.97;;;7.10;97.22
9423;BME280;4750;49.506;10.400;2022-11-18T06:05:07;96337.78;;;6.88;97.01
9423;BME280;4750;49.506;10.400;2022-11-18T06:07:53;96356.84;;;7.00;97.25
9423;BME280;4750;49.506;10.400;2022-11-18T06:10:39;96355.19;;;6.97;97.35
9423;BME280;4750;49.506;10.400;2022-11-18T06:13:33;96369.25;;;7.06;97.45
9423;BME280;4750;49.506;10.400;2022-11-18T06:16:21;96384.06;;;7.17;97.25
9423;BME280;4750;49.506;10.400;2022-11-18T06:19:07;96388.22;;;7.08;97.33
9423;BME280;4750;49.506;10.400;2022-11-18T06:21:51;96375.06;;;7.01;97.42
9423;BME280;4750;49.506;10.400;2022-11-18T06:24:37;96412.38;;;7.13;97.65
9423;BME280;4750;49.506;10.400;2022-11-18T06:27:22;96395.34;;;7.01;97.50
9423;BME280;4750;49.506;10.400;2022-11-18T06:30:07;96400.34;;;7.03;97.45
9423;BME280;4750;49.506;10.400;2022-11-18T06:32:51;96385.38;;;6.91;97.81
9423;BME280;4750;49.506;10.400;2022-11-18T06:35:35;96409.63;;;7.05;97.68
9423;BME280;4750;49.506;10.400;2022-11-18T06:38:23;96391.13;;;6.93;97.64
9423;BME280;4750;49.506;10.400;2022-11-18T06:41:07;96409.13;;;6.99;97.27
9423;BME280;4750;49.506;10.400;2022-11-18T06:43:51;96412.13;;;6.94;97.15
9423;BME280;4750;49.506;10.400;2022-11-18T06:46:35;96396.56;;;6.83;97.49
9423;BME280;4750;49.506;10.400;2022-11-18T06:49:38;96435.50;;;7.06;97.02
9423;BME280;4750;49.506;10.400;2022-11-18T06:52:22;96405.91;;;6.78;97.10
9423;BME280;4750;49.506;10.400;2022-11-18T06:55:06;96429.31;;;6.82;96.98
9423;BME280;4750;49.506;10.400;2022-11-18T06:57:51;96441.69;;;6.97;97.07
9423;BME280;4750;49.506;10.400;2022-11-18T07:00:35;96421.44;;;6.88;96.99
9423;BME280;4750;49.506;10.400;2022-11-18T07:03:19;96434.09;;;6.89;97.14
9423;BME280;4750;49.506;10.400;2022-11-18T07:06:03;96429.31;;;6.82;97.12
9423;BME280;4750;49.506;10.400;2022-11-18T07:08:47;96434.88;;;6.82;96.83
9423;BME280;4750;49.506;10.400;2022-11-18T07:11:32;96438.97;;;6.81;96.94
9423;BME280;4750;49.506;10.400;2022-11-18T07:14:16;96451.63;;;6.82;96.80
9423;BME280;4750;49.506;10.400;2022-11-18T07:17:00;96454.03;;;6.78;96.93
9423;BME280;4750;49.506;10.400;2022-11-18T07:19:44;96463.13;;;6.86;96.93
9423;BME280;4750;49.506;10.400;2022-11-18T07:22:28;96462.00;;;6.82;97.00
9423;BME280;4750;49.506;10.400;2022-11-18T07:25:12;96470.34;;;6.89;96.79
9423;BME280;4750;49.506;10.400;2022-11-18T07:27:57;96465.38;;;6.80;96.97
9423;BME280;4750;49.506;10.400;2022-11-18T07:30:41;96483.94;;;6.85;96.91
9423;BME280;4750;49.506;10.400;2022-11-18T07:33:25;96458.41;;;6.64;96.79
9423;BME280;4750;49.506;10.400;2022-11-18T07:36:17;96493.25;;;6.80;96.95
9423;BME280;4750;49.506;10.400;2022-11-18T07:39:04;96494.38;;;6.77;96.93
9423;BME280;4750;49.506;10.400;2022-11-18T07:41:48;96501.63;;;6.80;97.00
9423;BME280;4750;49.506;10.400;2022-11-18T07:44:32;96491.66;;;6.62;97.04
9423;BME280;4750;49.506;10.400;2022-11-18T07:47:16;96475.91;;;6.57;97.00
9423;BME280;4750;49.506;10.400;2022-11-18T07:50:00;96487.03;;;6.57;97.15
9423;BME280;4750;49.506;10.400;2022-11-18T07:52:44;96497.44;;;6.56;97.25
9423;BME280;4750;49.506;10.400;2022-11-18T07:55:28;96509.72;;;6.61;96.94
9423;BME280;4750;49.506;10.400;2022-11-18T07:58:12;96515.81;;;6.67;97.46
9423;BME280;4750;49.506;10.400;2022-11-18T08:00:57;96508.56;;;6.64;97.14
9423;BME280;4750;49.506;10.400;2022-11-18T08:03:42;96464.09;;;6.17;97.18
9423;BME280;4750;49.506;10.400;2022-11-18T08:06:26;96527.34;;;6.63;96.95
9423;BME280;4750;49.506;10.400;2022-11-18T08:09:10;96513.59;;;6.58;97.19
9423;BME280;4750;49.506;10.400;2022-11-18T08:11:54;96532.72;;;6.69;97.31
9423;BME280;4750;49.506;10.400;2022-11-18T08:14:38;96514.16;;;6.56;97.53
9423;BME280;4750;49.506;10.400;2022-11-18T08:17:23;96535.28;;;6.75;97.15
9423;BME280;4750;49.506;10.400;2022-11-18T08:20:07;96527.13;;;6.69;97.31
9423;BME280;4750;49.506;10.400;2022-11-18T08:22:51;96524.13;;;6.75;97.22
9423;BME280;4750;49.506;10.400;2022-11-18T08:25:35;96523.47;;;6.59;97.37
9423;BME280;4750;49.506;10.400;2022-11-18T08:28:19;96546.44;;;6.75;97.12
9423;BME280;4750;49.506;10.400;2022-11-18T08:31:16;96554.25;;;6.84;97.05
9423;BME280;4750;49.506;10.400;2022-11-18T08:34:05;96559.09;;;6.83;97.14
9423;BME280;4750;49.506;10.400;2022-11-18T08:36:50;96540.72;;;6.72;96.67
9423;BME280;4750;49.506;10.400;2022-11-18T08:39:34;96553.72;;;6.78;96.95
9423;BME280;4750;49.506;10.400;2022-11-18T08:42:18;96527.53;;;6.58;96.72
9423;BME280;4750;49.506;10.400;2022-11-18T08:45:05;96532.34;;;6.72;97.10
9423;BME280;4750;49.506;10.400;2022-11-18T08:47:53;96563.69;;;6.88;96.69
9423;BME280;4750;49.506;10.400;2022-11-18T08:50:37;96552.03;;;6.82;96.62
9423;BME280;4750;49.506;10.400;2022-11-18T08:53:21;96564.25;;;6.95;96.95
9423;BME280;4750;49.506;10.400;2022-11-18T08:56:05;96535.34;;;6.67;96.78
9423;BME280;4750;49.506;10.400;2022-11-18T08:58:50;96564.06;;;6.93;96.57
9423;BME280;4750;49.506;10.400;2022-11-18T09:01:35;96552.75;;;6.83;96.68
9423;BME280;4750;49.506;10.400;2022-11-18T09:04:20;96544.56;;;6.85;96.45
9423;BME280;4750;49.506;10.400;2022-11-18T09:07:04;96572.38;;;7.08;96.35
9423;BME280;4750;49.506;10.400;2022-11-18T09:09:48;96569.41;;;7.06;96.04
9423;BME280;4750;49.506;10.400;2022-11-18T09:12:32;96533.63;;;6.79;96.57
9423;BME280;4750;49.506;10.400;2022-11-18T09:15:16;96533.06;;;6.81;96.44
9423;BME280;4750;49.506;10.400;2022-11-18T09:18:00;96567.94;;;6.97;96.32
9423;BME280;4750;49.506;10.400;2022-11-18T09:20:53;96563.13;;;6.98;96.24
9423;BME280;4750;49.506;10.400;2022-11-18T09:23:38;96560.19;;;6.88;96.06
9423;BME280;4750;49.506;10.400;2022-11-18T09:26:22;96552.53;;;6.88;96.28
9423;BME280;4750;49.506;10.400;2022-11-18T09:29:07;96565.56;;;6.94;96.09
9423;BME280;4750;49.506;10.400;2022-11-18T09:31:52;96558.31;;;6.91;95.92
9423;BME280;4750;49.506;10.400;2022-11-18T09:34:36;96559.25;;;6.85;96.04
9423;BME280;4750;49.506;10.400;2022-11-18T09:37:20;96549.06;;;6.65;96.19
9423;BME280;4750;49.506;10.400;2022-11-18T09:40:05;96569.47;;;6.91;95.97
9423;BME280;4750;49.506;10.400;2022-11-18T09:43:06;96610.56;;;6.98;96.23
9423;BME280;4750;49.506;10.400;2022-11-18T09:45:59;96583.78;;;6.87;96.12
9423;BME280;4750;49.506;10.400;2022-11-18T09:48:48;96582.88;;;6.84;96.23
9423;BME280;4750;49.506;10.400;2022-11-18T09:51:51;96585.28;;;6.88;96.23
9423;BME280;4750;49.506;10.400;2022-11-18T09:54:36;96599.91;;;7.04;95.72
9423;BME280;4750;49.506;10.400;2022-11-18T09:57:34;96601.06;;;7.01;96.38
9423;BME280;4750;49.506;10.400;2022-11-18T10:00:21;96606.03;;;7.10;95.92
9423;BME280;4750;49.506;10.400;2022-11-18T10:03:26;96607.34;;;7.09;95.94
9423;BME280;4750;49.506;10.400;2022-11-18T10:09:26;96623.34;;;7.09;96.00
9423;BME280;4750;49.506;10.400;2022-11-18T10:12:28;96620.69;;;7.18;96.47
9423;BME280;4750;49.506;10.400;2022-11-18T10:15:25;96617.34;;;7.20;96.34
9423;BME280;4750;49.506;10.400;2022-11-18T10:24:38;96608.06;;;7.17;96.49
9423;BME280;4750;49.506;10.400;2022-11-18T10:27:32;96627.34;;;7.31;96.83
9423;BME280;4750;49.506;10.400;2022-11-18T10:30:20;96581.72;;;6.95;96.38
9423;BME280;4750;49.506;10.400;2022-11-18T10:39:12;96621.41;;;7.27;97.03
9423;BME280;4750;49.506;10.400;2022-11-18T10:42:04;96639.81;;;7.30;96.90
9423;BME280;4750;49.506;10.400;2022-11-18T10:44:49;96621.09;;;7.15;96.54
9423;BME280;4750;49.506;10.400;2022-11-18T10:47:33;96618.50;;;7.09;96.70
9423;BME280;4750;49.506;10.400;2022-11-18T10:50:48;96637.94;;;7.32;96.77
9423;BME280;4750;49.506;10.400;2022-11-18T10:53:35;96626.63;;;7.30;96.33
9423;BME280;4750;49.506;10.400;2022-11-18T10:56:19;96612.25;;;7.34;96.31
9423;BME280;4750;49.506;10.400;2022-11-18T10:59:04;96613.56;;;7.33;96.47
9423;BME280;4750;49.506;10.400;2022-11-18T11:02:13;96617.69;;;7.32;96.19
9423;BME280;4750;49.506;10.400;2022-11-18T11:05:03;96646.78;;;7.54;96.34
9423;BME280;4750;49.506;10.400;2022-11-18T11:08:22;96625.78;;;7.45;96.06
9423;BME280;4750;49.506;10.400;2022-11-18T11:11:20;96624.41;;;7.29;95.94
9423;BME280;4750;49.506;10.400;2022-11-18T11:14:25;96614.88;;;7.32;95.74
9423;BME280;4750;49.506;10.400;2022-11-18T11:17:30;96639.59;;;7.35;95.93
9423;BME280;4750;49.506;10.400;2022-11-18T11:20:20;96599.50;;;7.15;95.55
9423;BME280;4750;49.506;10.400;2022-11-18T11:23:13;96642.94;;;7.41;95.77
9423;BME280;4750;49.506;10.400;2022-11-18T11:26:03;96636.66;;;7.26;95.48
9423;BME280;4750;49.506;10.400;2022-11-18T11:35:24;96655.56;;;7.50;95.32
9423;BME280;4750;49.506;10.400;2022-11-18T11:41:16;96640.31;;;7.51;95.57
9423;BME280;4750;49.506;10.400;2022-11-18T11:50:59;96662.16;;;7.70;95.35
9423;BME280;4750;49.506;10.400;2022-11-18T11:54:30;96669.25;;;7.71;95.49
9423;BME280;4750;49.506;10.400;2022-11-18T11:57:32;96643.69;;;7.42;94.96
9423;BME280;4750;49.506;10.400;2022-11-18T12:00:22;96649.22;;;7.50;95.24
9423;BME280;4750;49.506;10.400;2022-11-18T12:06:21;96665.19;;;7.65;95.25
9423;BME280;4750;49.506;10.400;2022-11-18T12:09:15;96653.28;;;7.64;95.21
9423;BME280;4750;49.506;10.400;2022-11-18T12:12:26;96670.50;;;7.78;95.08
9423;BME280;4750;49.506;10.400;2022-11-18T12:15:28;96657.31;;;7.71;94.68
9423;BME280;4750;49.506;10.400;2022-11-18T12:18:42;96671.03;;;7.84;94.75
9423;BME280;4750;49.506;10.400;2022-11-18T12:24:31;96665.25;;;7.82;94.59
9423;BME280;4750;49.506;10.400;2022-11-18T12:30:17;96673.41;;;7.96;94.47
9423;BME280;4750;49.506;10.400;2022-11-18T12:33:02;96664.81;;;7.93;93.99
9423;BME280;4750;49.506;10.400;2022-11-18T12:35:47;96658.72;;;7.87;93.90
9423;BME280;4750;49.506;10.400;2022-11-18T12:38:33;96683.84;;;8.20;93.26
9423;BME280;4750;49.506;10.400;2022-11-18T12:44:54;96682.94;;;8.43;92.48
9423;BME280;4750;49.506;10.400;2022-11-18T12:50:46;96678.91;;;8.61;92.12
9423;BME280;4750;49.506;10.400;2022-11-18T12:53:47;96685.38;;;8.47;91.63
9423;BME280;4750;49.506;10.400;2022-11-18T12:56:35;96653.09;;;8.20;91.53
9423;BME280;4750;49.506;10.400;2022-11-18T12:59:30;96659.25;;;8.19;91.11
9423;BME280;4750;49.506;10.400;2022-11-18T13:02:29;96706.81;;;8.44;91.31
9423;BME280;4750;49.506;10.400;2022-11-18T13:05:24;96686.72;;;8.38;90.86
9423;BME280;4750;49.506;10.400;2022-11-18T13:08:10;96660.88;;;7.97;90.98
9423;BME280;4750;49.506;10.400;2022-11-18T13:11:04;96702.47;;;8.25;91.21
9423;BME280;4750;49.506;10.400;2022-11-18T13:17:39;96698.13;;;7.99;91.04
9423;BME280;4750;49.506;10.400;2022-11-18T13:20:38;96708.97;;;7.95;91.49
9423;BME280;4750;49.506;10.400;2022-11-18T13:23:28;96709.38;;;7.91;91.67
9423;BME280;4750;49.506;10.400;2022-11-18T13:26:33;96699.72;;;7.85;91.60
9423;BME280;4750;49.506;10.400;2022-11-18T13:29:23;96705.09;;;7.90;91.54
9423;BME280;4750;49.506;10.400;2022-11-18T13:32:23;96684.56;;;7.63;91.72
9423;BME280;4750;49.506;10.400;2022-11-18T13:35:17;96701.00;;;7.84;92.06
9423;BME280;4750;49.506;10.400;2022-11-18T13:38:02;96706.47;;;7.74;92.56
9423;BME280;4750;49.506;10.400;2022-11-18T13:40:46;96683.06;;;7.62;92.38
9423;BME280;4750;49.506;10.400;2022-11-18T13:43:50;96683.84;;;7.54;92.87
9423;BME280;4750;49.506;10.400;2022-11-18T13:46:34;96710.00;;;7.74;92.77
9423;BME280;4750;49.506;10.400;2022-11-18T13:49:22;96705.50;;;7.79;93.02
9423;BME280;4750;49.506;10.400;2022-11-18T13:52:26;96688.81;;;7.71;93.57
9423;BME280;4750;49.506;10.400;2022-11-18T13:55:16;96696.25;;;7.69;93.66
9423;BME280;4750;49.506;10.400;2022-11-18T14:01:14;96718.09;;;7.96;93.82
9423;BME280;4750;49.506;10.400;2022-11-18T14:06:44;96693.63;;;7.71;93.89
9423;BME280;4750;49.506;10.400;2022-11-18T14:09:30;96690.16;;;7.63;93.96
9423;BME280;4750;49.506;10.400;2022-11-18T14:15:34;96719.84;;;7.83;93.97
9423;BME280;4750;49.506;10.400;2022-11-18T14:18:26;96704.47;;;7.59;94.05
9423;BME280;4750;49.506;10.400;2022-11-18T14:21:12;96721.69;;;7.81;94.40
9423;BME280;4750;49.506;10.400;2022-11-18T14:23:56;96718.03;;;7.70;94.40
9423;BME280;4750;49.506;10.400;2022-11-18T14:26:40;96704.31;;;7.57;94.56
9423;BME280;4750;49.506;10.400;2022-11-18T14:29:24;96702.47;;;7.52;94.73
9423;BME280;4750;49.506;10.400;2022-11-18T14:32:13;96719.53;;;7.64;94.99
9423;BME280;4750;49.506;10.400;2022-11-18T14:34:58;96697.25;;;7.48;95.11
9423;BME280;4750;49.506;10.400;2022-11-18T14:37:42;96703.56;;;7.56;95.14
9423;BME280;4750;49.506;10.400;2022-11-18T14:40:28;96709.50;;;7.61;95.31
9423;BME280;4750;49.506;10.400;2022-11-18T14:43:12;96711.72;;;7.62;95.08
9423;BME280;4750;49.506;10.400;2022-11-18T14:46:17;96731.75;;;7.84;95.43
9423;BME280;4750;49.506;10.400;2022-11-18T14:49:03;96708.56;;;7.66;95.85
9423;BME280;4750;49.506;10.400;2022-11-18T14:51:49;96720.03;;;7.85;95.75
9423;BME280;4750;49.506;10.400;2022-11-18T14:54:33;96725.22;;;7.89;95.93
9423;BME280;4750;49.506;10.400;2022-11-18T14:57:17;96718.34;;;7.82;95.86
9423;BME280;4750;49.506;10.400;2022-11-18T15:00:02;96752.50;;;8.06;95.80
9423;BME280;4750;49.506;10.400;2022-11-18T15:02:46;96733.22;;;7.92;95.54
9423;BME280;4750;49.506;10.400;2022-11-18T15:05:31;96737.63;;;8.03;95.52
9423;BME280;4750;49.506;10.400;2022-11-18T15:08:15;96726.66;;;7.98;95.76
9423;BME280;4750;49.506;10.400;2022-11-18T15:10:59;96716.53;;;7.77;95.17
9423;BME280;4750;49.506;10.400;2022-11-18T15:13:44;96748.78;;;8.03;95.54
9423;BME280;4750;49.506;10.400;2022-11-18T15:16:32;96761.06;;;8.08;95.33
9423;BME280;4750;49.506;10.400;2022-11-18T15:19:16;96733.28;;;7.77;95.53
9423;BME280;4750;49.506;10.400;2022-11-18T15:22:00;96730.13;;;7.73;95.69
9423;BME280;4750;49.506;10.400;2022-11-18T15:24:44;96725.88;;;7.64;95.53
9423;BME280;4750;49.506;10.400;2022-11-18T15:27:28;96735.16;;;7.67;95.46
9423;BME280;4750;49.506;10.400;2022-11-18T15:30:13;96742.28;;;7.60;95.88
9423;BME280;4750;49.506;10.400;2022-11-18T15:32:57;96770.72;;;7.74;95.48
9423;BME280;4750;49.506;10.400;2022-11-18T15:35:41;96764.53;;;7.83;95.86
9423;BME280;4750;49.506;10.400;2022-11-18T15:38:26;96780.94;;;7.79;95.68
9423;BME280;4750;49.506;10.400;2022-11-18T15:41:18;96781.50;;;7.78;95.56
9423;BME280;4750;49.506;10.400;2022-11-18T15:44:03;96762.75;;;7.63;95.78
9423;BME280;4750;49.506;10.400;2022-11-18T15:46:47;96786.53;;;7.79;95.75
9423;BME280;4750;49.506;10.400;2022-11-18T15:49:33;96757.91;;;7.55;95.59
9423;BME280;4750;49.506;10.400;2022-11-18T15:52:17;96775.22;;;7.62;95.51
9423;BME280;4750;49.506;10.400;2022-11-18T15:55:02;96764.81;;;7.54;95.49
9423;BME280;4750;49.506;10.400;2022-11-18T15:57:46;96767.63;;;7.54;95.20
9423;BME280;4750;49.506;10.400;2022-11-18T16:00:30;96773.97;;;7.47;95.28
9423;BME280;4750;49.506;10.400;2022-11-18T16:03:14;96791.44;;;7.55;95.07
9423;BME280;4750;49.506;10.400;2022-11-18T16:05:58;96780.28;;;7.48;95.04
9423;BME280;4750;49.506;10.400;2022-11-18T16:08:42;96772.69;;;7.40;94.85
9423;BME280;4750;49.506;10.400;2022-11-18T16:11:27;96799.81;;;7.55;94.89
9423;BME280;4750;49.506;10.400;2022-11-18T16:14:30;96782.91;;;7.38;94.95
9423;BME280;4750;49.506;10.400;2022-11-18T16:17:14;96814.72;;;7.50;94.83
9423;BME280;4750;49.506;10.400;2022-11-18T16:19:58;96816.03;;;7.49;94.84
9423;BME280;4750;49.506;10.400;2022-11-18T16:22:42;96770.28;;;7.21;94.99
9423;BME280;4750;49.506;10.400;2022-11-18T16:25:26;96774.59;;;7.15;94.86
9423;BME280;4750;49.506;10.400;2022-11-18T16:28:10;96824.41;;;7.34;95.02
9423;BME280;4750;49.506;10.400;2022-11-18T16:30:56;96810.66;;;7.20;95.05
9423;BME280;4750;49.506;10.400;2022-11-18T16:34:13;96805.47;;;7.09;95.25
9423;BME280;4750;49.506;10.400;2022-11-18T16:36:58;96830.38;;;7.30;95.35